sensor_id;sensor_type;location;lat;lon;timestamp;pressure;altitude;pressure_sealevel;temperature;humidity
72486;BME280;60509;47.308;-122.428;2023-05-20T00:00:34;100785.30;;;17.17;29.13
72486;BME280;60509;47.308;-122.428;2023-05-20T00:02:55;100786.76;;;16.65;28.69
72486;BME280;60509;47.308;-122.428;2023-05-20T00:05:21;100784.24;;;17.28;28.49
72486;BME280;60509;47.308;-122.428;2023-05-20T00:07:47;100786.19;;;18.59;26.44
72486;BME280;60509;47.308;-122.428;2023-05-20T00:10:13;100787.82;;;18.17;26.65
72486;BME280;60509;47.308;-122.428;2023-05-20T00:12:38;100783.09;;;18.50;26.79
72486;BME280;60509;47.308;-122.428;2023-05-20T00:15:05;100786.22;;;18.66;26.00
72486;BME280;60509;47.308;-122.428;2023-05-20T00:17:31;100783.05;;;17.96;25.94
72486;BME280;60509;47.308;-122.428;2023-05-20T00:19:56;100779.46;;;18.31;25.88
72486;BME280;60509;47.308;-122.428;2023-05-20T00:22:22;100778.83;;;18.15;26.33
72486;BME280;60509;47.308;-122.428;2023-05-20T00:24:48;100775.31;;;18.53;25.98
72486;BME280;60509;47.308;-122.428;2023-05-20T00:27:14;100774.55;;;19.19;26.28
72486;BME280;60509;47.308;-122.428;2023-05-20T00:29:40;100771.93;;;19.04;26.15
72486;BME280;60509;47.308;-122.428;2023-05-20T00:32:06;100774.50;;;18.98;26.34
72486;BME280;60509;47.308;-122.428;2023-05-20T00:34:32;100774.20;;;18.23;26.39
72486;BME280;60509;47.308;-122.428;2023-05-20T00:36:58;100766.52;;;18.48;25.97
72486;BME280;60509;47.308;-122.428;2023-05-20T00:39:24;100763.83;;;18.49;26.14
72486;BME280;60509;47.308;-122.428;2023-05-20T00:41:50;100761.52;;;17.94;25.92
72486;BME280;60509;47.308;-122.428;2023-05-20T00:44:16;100759.54;;;18.30;25.73
72486;BME280;60509;47.308;-122.428;2023-05-20T00:46:42;100760.82;;;18.02;26.19
72486;BME280;60509;47.308;-122.428;2023-05-20T00:49:08;100757.18;;;18.64;26.33
72486;BME280;60509;47.308;-122.428;2023-05-20T00:51:34;100755.36;;;19.07;26.67
72486;BME280;60509;47.308;-122.428;2023-05-20T00:53:59;100747.54;;;19.29;26.01
72486;BME280;60509;47.308;-122.428;2023-05-20T00:56:25;100744.83;;;19.35;25.84
72486;BME280;60509;47.308;-122.428;2023-05-20T00:58:51;100739.95;;;18.37;26.20
72486;BME280;60509;47.308;-122.428;2023-05-20T01:01:17;100738.46;;;17.10;26.93
72486;BME280;60509;47.308;-122.428;2023-05-20T01:03:43;100733.89;;;17.79;26.35
72486;BME280;60509;47.308;-122.428;2023-05-20T01:06:09;100730.59;;;18.15;25.61
72486;BME280;60509;47.308;-122.428;2023-05-20T01:08:35;100733.46;;;17.86;26.51
72486;BME280;60509;47.308;-122.428;2023-05-20T01:11:05;100731.44;;;18.12;26.38
72486;BME280;60509;47.308;-122.428;2023-05-20T01:13:32;100730.54;;;18.70;25.85
72486;BME280;60509;47.308;-122.428;2023-05-20T01:15:53;100729.26;;;19.36;26.18
72486;BME280;60509;47.308;-122.428;2023-05-20T01:18:19;100725.96;;;18.96;25.81
72486;BME280;60509;47.308;-122.428;2023-05-20T01:20:46;100726.17;;;18.52;25.73
72486;BME280;60509;47.308;-122.428;2023-05-20T01:23:10;100725.06;;;18.41;25.49
72486;BME280;60509;47.308;-122.428;2023-05-20T01:25:36;100721.91;;;17.81;25.56
72486;BME280;60509;47.308;-122.428;2023-05-20T01:28:02;100724.43;;;17.37;25.25
72486;BME280;60509;47.308;-122.428;2023-05-20T01:30:32;100725.23;;;17.45;25.73
72486;BME280;60509;47.308;-122.428;2023-05-20T01:32:58;100727.49;;;18.34;25.92
72486;BME280;60509;47.308;-122.428;2023-05-20T01:35:20;100725.21;;;18.70;25.59
72486;BME280;60509;47.308;-122.428;2023-05-20T01:37:45;100724.68;;;19.06;25.51
72486;BME280;60509;47.308;-122.428;2023-05-20T01:40:14;100723.83;;;18.99;25.66
72486;BME280;60509;47.308;-122.428;2023-05-20T01:42:38;100720.31;;;18.02;25.77
72486;BME280;60509;47.308;-122.428;2023-05-20T01:45:03;100719.37;;;17.86;25.49
72486;BME280;60509;47.308;-122.428;2023-05-20T01:47:29;100718.38;;;17.85;25.34
72486;BME280;60509;47.308;-122.428;2023-05-20T01:49:55;100721.11;;;17.73;25.97
72486;BME280;60509;47.308;-122.428;2023-05-20T01:52:21;100724.66;;;18.08;25.72
72486;BME280;60509;47.308;-122.428;2023-05-20T01:54:47;100725.13;;;18.78;25.61
72486;BME280;60509;47.308;-122.428;2023-05-20T01:57:12;100725.21;;;19.25;25.86
72486;BME280;60509;47.308;-122.428;2023-05-20T01:59:38;100730.54;;;18.64;25.79
72486;BME280;60509;47.308;-122.428;2023-05-20T02:02:04;100729.95;;;17.68;26.01
72486;BME280;60509;47.308;-122.428;2023-05-20T02:04:30;100732.01;;;17.65;25.72
72486;BME280;60509;47.308;-122.428;2023-05-20T02:06:56;100729.95;;;17.48;25.53
72486;BME280;60509;47.308;-122.428;2023-05-20T02:09:22;100726.60;;;17.71;25.87
72486;BME280;60509;47.308;-122.428;2023-05-20T02:11:48;100727.95;;;18.23;25.70
72486;BME280;60509;47.308;-122.428;2023-05-20T02:14:14;100731.99;;;18.70;25.66
72486;BME280;60509;47.308;-122.428;2023-05-20T02:16:40;100735.47;;;19.33;25.75
72486;BME280;60509;47.308;-122.428;2023-05-20T02:19:06;100741.36;;;18.78;25.68
72486;BME280;60509;47.308;-122.428;2023-05-20T02:21:31;100741.70;;;17.86;26.03
72486;BME280;60509;47.308;-122.428;2023-05-20T02:23:57;100739.29;;;17.73;26.16
72486;BME280;60509;47.308;-122.428;2023-05-20T02:26:23;100740.46;;;17.83;26.29
72486;BME280;60509;47.308;-122.428;2023-05-20T02:28:49;100743.18;;;17.47;26.59
72486;BME280;60509;47.308;-122.428;2023-05-20T02:31:15;100741.79;;;18.18;26.01
72486;BME280;60509;47.308;-122.428;2023-05-20T02:33:41;100745.77;;;18.85;25.85
72486;BME280;60509;47.308;-122.428;2023-05-20T02:36:08;100740.97;;;18.80;25.82
72486;BME280;60509;47.308;-122.428;2023-05-20T02:38:33;100744.04;;;18.87;26.23
72486;BME280;60509;47.308;-122.428;2023-05-20T02:40:59;100738.14;;;18.24;26.34
72486;BME280;60509;47.308;-122.428;2023-05-20T02:43:25;100736.93;;;17.74;26.75
72486;BME280;60509;47.308;-122.428;2023-05-20T02:45:51;100735.00;;;17.30;26.28
72486;BME280;60509;47.308;-122.428;2023-05-20T02:48:17;100737.82;;;17.56;26.59
72486;BME280;60509;47.308;-122.428;2023-05-20T02:50:42;100733.71;;;18.18;26.49
72486;BME280;60509;47.308;-122.428;2023-05-20T02:53:08;100734.34;;;18.58;26.25
72486;BME280;60509;47.308;-122.428;2023-05-20T02:55:34;100732.47;;;18.65;26.34
72486;BME280;60509;47.308;-122.428;2023-05-20T02:58:00;100730.66;;;18.82;26.29
72486;BME280;60509;47.308;-122.428;2023-05-20T03:00:26;100726.66;;;18.34;26.53
72486;BME280;60509;47.308;-122.428;2023-05-20T03:02:52;100723.82;;;17.05;26.66
72486;BME280;60509;47.308;-122.428;2023-05-20T03:05:18;100726.90;;;17.31;26.67
72486;BME280;60509;47.308;-122.428;2023-05-20T03:07:44;100732.09;;;17.80;26.53
72486;BME280;60509;47.308;-122.428;2023-05-20T03:10:10;100745.54;;;18.12;26.25
72486;BME280;60509;47.308;-122.428;2023-05-20T03:12:35;100751.36;;;18.38;25.92
72486;BME280;60509;47.308;-122.428;2023-05-20T03:15:01;100748.25;;;18.79;25.93
72486;BME280;60509;47.308;-122.428;2023-05-20T03:17:27;100744.39;;;18.63;26.42
72486;BME280;60509;47.308;-122.428;2023-05-20T03:19:53;100748.08;;;16.98;26.90
72486;BME280;60509;47.308;-122.428;2023-05-20T03:22:19;100751.35;;;17.89;26.31
72486;BME280;60509;47.308;-122.428;2023-05-20T03:24:45;100756.92;;;16.83;26.54
72486;BME280;60509;47.308;-122.428;2023-05-20T03:27:11;100756.30;;;17.73;26.54
72486;BME280;60509;47.308;-122.428;2023-05-20T03:29:37;100759.89;;;18.17;26.21
72486;BME280;60509;47.308;-122.428;2023-05-20T03:32:03;100765.58;;;18.38;26.45
72486;BME280;60509;47.308;-122.428;2023-05-20T03:34:28;100773.16;;;18.58;26.23
72486;BME280;60509;47.308;-122.428;2023-05-20T03:36:54;100775.65;;;18.72;26.57
72486;BME280;60509;47.308;-122.428;2023-05-20T03:39:20;100775.89;;;18.58;26.42
72486;BME280;60509;47.308;-122.428;2023-05-20T03:41:46;100778.63;;;17.90;26.62
72486;BME280;60509;47.308;-122.428;2023-05-20T03:44:12;100780.48;;;17.18;27.57
72486;BME280;60509;47.308;-122.428;2023-05-20T03:46:38;100783.52;;;17.81;27.06
72486;BME280;60509;47.308;-122.428;2023-05-20T03:49:03;100785.89;;;18.13;27.10
72486;BME280;60509;47.308;-122.428;2023-05-20T03:51:29;100785.47;;;18.02;27.17
72486;BME280;60509;47.308;-122.428;2023-05-20T03:53:55;100781.17;;;18.43;26.71
72486;BME280;60509;47.308;-122.428;2023-05-20T03:56:21;100776.18;;;18.77;27.04
72486;BME280;60509;47.308;-122.428;2023-05-20T03:58:47;100772.02;;;18.82;26.94
72486;BME280;60509;47.308;-122.428;2023-05-20T04:01:13;100772.79;;;17.07;27.84
72486;BME280;60509;47.308;-122.428;2023-05-20T04:03:39;100774.89;;;17.17;27.15
72486;BME280;60509;47.308;-122.428;2023-05-20T04:06:05;100779.95;;;17.15;27.54
72486;BME280;60509;47.308;-122.428;2023-05-20T04:08:30;100787.43;;;17.81;27.28
72486;BME280;60509;47.308;-122.428;2023-05-20T04:10:56;100787.75;;;17.99;27.34
72486;BME280;60509;47.308;-122.428;2023-05-20T04:13:23;100785.00;;;18.19;27.34
72486;BME280;60509;47.308;-122.428;2023-05-20T04:15:48;100782.85;;;18.35;27.35
72486;BME280;60509;47.308;-122.428;2023-05-20T04:18:14;100784.92;;;18.46;27.32
72486;BME280;60509;47.308;-122.428;2023-05-20T04:20:40;100790.60;;;18.53;27.50
72486;BME280;60509;47.308;-122.428;2023-05-20T04:23:06;100793.44;;;17.75;27.86
72486;BME280;60509;47.308;-122.428;2023-05-20T04:25:31;100797.83;;;17.23;27.42
72486;BME280;60509;47.308;-122.428;2023-05-20T04:27:58;100799.11;;;16.73;28.05
72486;BME280;60509;47.308;-122.428;2023-05-20T04:30:23;100799.30;;;17.32;27.54
72486;BME280;60509;47.308;-122.428;2023-05-20T04:32:49;100806.41;;;18.12;27.27
72486;BME280;60509;47.308;-122.428;2023-05-20T04:35:15;100810.84;;;17.90;27.37
72486;BME280;60509;47.308;-122.428;2023-05-20T04:37:41;100814.12;;;18.04;27.36
72486;BME280;60509;47.308;-122.428;2023-05-20T04:40:07;100813.84;;;18.34;27.26
72486;BME280;60509;47.308;-122.428;2023-05-20T04:42:32;100809.97;;;18.23;27.21
72486;BME280;60509;47.308;-122.428;2023-05-20T04:44:58;100805.76;;;18.44;27.38
72486;BME280;60509;47.308;-122.428;2023-05-20T04:47:24;100807.65;;;17.97;27.45
72486;BME280;60509;47.308;-122.428;2023-05-20T04:49:50;100811.17;;;17.34;27.25
72486;BME280;60509;47.308;-122.428;2023-05-20T04:52:16;100814.29;;;17.00;28.09
72486;BME280;60509;47.308;-122.428;2023-05-20T04:54:42;100813.07;;;17.72;27.52
72486;BME280;60509;47.308;-122.428;2023-05-20T04:57:08;100816.42;;;17.83;27.28
72486;BME280;60509;47.308;-122.428;2023-05-20T04:59:34;100818.61;;;17.81;27.50
72486;BME280;60509;47.308;-122.428;2023-05-20T05:01:59;100819.56;;;18.35;27.40
72486;BME280;60509;47.308;-122.428;2023-05-20T05:04:25;100819.13;;;18.10;27.62
72486;BME280;60509;47.308;-122.428;2023-05-20T05:06:51;100815.49;;;18.25;27.41
72486;BME280;60509;47.308;-122.428;2023-05-20T05:09:17;100811.72;;;18.20;27.46
72486;BME280;60509;47.308;-122.428;2023-05-20T05:11:43;100814.12;;;18.20;27.66
72486;BME280;60509;47.308;-122.428;2023-05-20T05:14:14;100811.19;;;17.52;27.88
72486;BME280;60509;47.308;-122.428;2023-05-20T05:16:35;100816.64;;;15.82;28.44
72486;BME280;60509;47.308;-122.428;2023-05-20T05:19:01;100816.31;;;16.91;28.25
72486;BME280;60509;47.308;-122.428;2023-05-20T05:21:27;100820.92;;;17.67;28.03
72486;BME280;60509;47.308;-122.428;2023-05-20T05:23:53;100827.59;;;17.56;28.17
72486;BME280;60509;47.308;-122.428;2023-05-20T05:26:18;100837.63;;;17.96;28.10
72486;BME280;60509;47.308;-122.428;2023-05-20T05:28:44;100840.80;;;17.77;27.87
72486;BME280;60509;47.308;-122.428;2023-05-20T05:31:15;100842.25;;;18.07;27.70
72486;BME280;60509;47.308;-122.428;2023-05-20T05:33:36;100842.18;;;17.96;27.93
72486;BME280;60509;47.308;-122.428;2023-05-20T05:36:02;100849.59;;;18.17;28.37
72486;BME280;60509;47.308;-122.428;2023-05-20T05:38:28;100852.88;;;18.40;28.75
72486;BME280;60509;47.308;-122.428;2023-05-20T05:40:54;100850.51;;;18.35;28.47
72486;BME280;60509;47.308;-122.428;2023-05-20T05:43:20;100843.36;;;17.36;28.85
72486;BME280;60509;47.308;-122.428;2023-05-20T05:45:45;100836.39;;;17.05;28.77
72486;BME280;60509;47.308;-122.428;2023-05-20T05:48:12;100837.29;;;17.07;29.29
72486;BME280;60509;47.308;-122.428;2023-05-20T05:50:37;100839.33;;;17.19;29.07
72486;BME280;60509;47.308;-122.428;2023-05-20T05:53:03;100841.80;;;17.74;28.74
72486;BME280;60509;47.308;-122.428;2023-05-20T05:55:29;100842.92;;;18.12;28.51
72486;BME280;60509;47.308;-122.428;2023-05-20T05:57:55;100849.21;;;17.49;28.57
72486;BME280;60509;47.308;-122.428;2023-05-20T06:00:21;100850.47;;;17.69;28.35
72486;BME280;60509;47.308;-122.428;2023-05-20T06:02:47;100854.11;;;17.86;28.25
72486;BME280;60509;47.308;-122.428;2023-05-20T06:05:13;100861.11;;;18.09;28.25
72486;BME280;60509;47.308;-122.428;2023-05-20T06:07:39;100859.19;;;18.09;28.56
72486;BME280;60509;47.308;-122.428;2023-05-20T06:10:05;100855.42;;;17.99;28.83
72486;BME280;60509;47.308;-122.428;2023-05-20T06:12:30;100851.68;;;18.43;27.99
72486;BME280;60509;47.308;-122.428;2023-05-20T06:14:56;100854.25;;;16.85;28.89
72486;BME280;60509;47.308;-122.428;2023-05-20T06:17:22;100865.50;;;15.95;29.89
72486;BME280;60509;47.308;-122.428;2023-05-20T06:19:48;100866.31;;;17.24;29.07
72486;BME280;60509;47.308;-122.428;2023-05-20T06:22:14;100864.21;;;17.20;28.99
72486;BME280;60509;47.308;-122.428;2023-05-20T06:24:40;100867.31;;;17.68;28.83
72486;BME280;60509;47.308;-122.428;2023-05-20T06:27:06;100864.16;;;17.65;28.68
72486;BME280;60509;47.308;-122.428;2023-05-20T06:29:31;100861.67;;;17.91;28.49
72486;BME280;60509;47.308;-122.428;2023-05-20T06:31:58;100862.03;;;18.21;28.71
72486;BME280;60509;47.308;-122.428;2023-05-20T06:34:23;100866.88;;;17.65;28.95
72486;BME280;60509;47.308;-122.428;2023-05-20T06:36:49;100867.47;;;17.49;29.32
72486;BME280;60509;47.308;-122.428;2023-05-20T06:39:15;100869.32;;;17.67;29.05
72486;BME280;60509;47.308;-122.428;2023-05-20T06:41:41;100869.76;;;17.78;28.70
72486;BME280;60509;47.308;-122.428;2023-05-20T06:44:07;100869.77;;;18.00;28.31
72486;BME280;60509;47.308;-122.428;2023-05-20T06:46:32;100869.77;;;16.69;29.43
72486;BME280;60509;47.308;-122.428;2023-05-20T06:48:58;100863.10;;;17.25;28.89
72486;BME280;60509;47.308;-122.428;2023-05-20T06:51:24;100867.43;;;17.36;29.15
72486;BME280;60509;47.308;-122.428;2023-05-20T06:53:50;100868.55;;;17.62;29.36
72486;BME280;60509;47.308;-122.428;2023-05-20T06:56:16;100868.20;;;17.88;28.34
72486;BME280;60509;47.308;-122.428;2023-05-20T06:58:42;100871.37;;;17.54;28.39
72486;BME280;60509;47.308;-122.428;2023-05-20T07:01:07;100871.81;;;17.92;28.15
72486;BME280;60509;47.308;-122.428;2023-05-20T07:03:33;100881.98;;;18.16;28.45
72486;BME280;60509;47.308;-122.428;2023-05-20T07:05:59;100878.84;;;18.18;28.75
72486;BME280;60509;47.308;-122.428;2023-05-20T07:08:25;100877.54;;;17.61;28.83
72486;BME280;60509;47.308;-122.428;2023-05-20T07:10:51;100875.44;;;17.75;28.98
72486;BME280;60509;47.308;-122.428;2023-05-20T07:13:22;100869.88;;;18.26;28.75
72486;BME280;60509;47.308;-122.428;2023-05-20T07:15:46;100865.28;;;17.87;28.96
72486;BME280;60509;47.308;-122.428;2023-05-20T07:18:09;100860.66;;;18.61;27.99
72486;BME280;60509;47.308;-122.428;2023-05-20T07:20:34;100867.83;;;17.48;28.27
72486;BME280;60509;47.308;-122.428;2023-05-20T07:23:00;100875.72;;;17.30;28.85
72486;BME280;60509;47.308;-122.428;2023-05-20T07:25:26;100879.12;;;16.86;28.93
72486;BME280;60509;47.308;-122.428;2023-05-20T07:27:52;100882.68;;;18.00;28.36
72486;BME280;60509;47.308;-122.428;2023-05-20T07:30:18;100881.69;;;17.40;28.62
72486;BME280;60509;47.308;-122.428;2023-05-20T07:32:44;100888.43;;;17.74;28.47
72486;BME280;60509;47.308;-122.428;2023-05-20T07:35:10;100888.95;;;17.88;28.61
72486;BME280;60509;47.308;-122.428;2023-05-20T07:37:36;100886.68;;;18.15;28.98
72486;BME280;60509;47.308;-122.428;2023-05-20T07:40:02;100884.03;;;17.71;28.63
72486;BME280;60509;47.308;-122.428;2023-05-20T07:42:28;100893.78;;;17.41;28.84
72486;BME280;60509;47.308;-122.428;2023-05-20T07:44:53;100898.96;;;17.32;28.66
72486;BME280;60509;47.308;-122.428;2023-05-20T07:47:19;100900.66;;;17.50;28.67
72486;BME280;60509;47.308;-122.428;2023-05-20T07:49:45;100899.72;;;17.48;28.73
72486;BME280;60509;47.308;-122.428;2023-05-20T07:52:11;100901.55;;;17.50;28.81
72486;BME280;60509;47.308;-122.428;2023-05-20T07:54:37;100904.71;;;17.68;28.99
72486;BME280;60509;47.308;-122.428;2023-05-20T07:57:03;100904.98;;;17.84;28.89
72486;BME280;60509;47.308;-122.428;2023-05-20T07:59:29;100903.08;;;17.64;28.79
72486;BME280;60509;47.308;-122.428;2023-05-20T08:01:55;100903.42;;;17.72;28.75
72486;BME280;60509;47.308;-122.428;2023-05-20T08:04:21;100899.88;;;18.52;28.39
72486;BME280;60509;47.308;-122.428;2023-05-20T08:06:46;100902.51;;;18.24;28.46
72486;BME280;60509;47.308;-122.428;2023-05-20T08:09:12;100909.34;;;17.97;28.84
72486;BME280;60509;47.308;-122.428;2023-05-20T08:11:38;100916.24;;;18.53;28.06
72486;BME280;60509;47.308;-122.428;2023-05-20T08:14:04;100920.99;;;17.31;27.95
72486;BME280;60509;47.308;-122.428;2023-05-20T08:16:30;100926.48;;;16.98;28.84
72486;BME280;60509;47.308;-122.428;2023-05-20T08:18:56;100936.73;;;17.26;29.03
72486;BME280;60509;47.308;-122.428;2023-05-20T08:21:22;100941.80;;;17.19;28.87
72486;BME280;60509;47.308;-122.428;2023-05-20T08:23:49;100942.72;;;17.71;28.39
72486;BME280;60509;47.308;-122.428;2023-05-20T08:26:14;100939.83;;;17.78;28.26
72486;BME280;60509;47.308;-122.428;2023-05-20T08:28:40;100934.44;;;18.23;28.31
72486;BME280;60509;47.308;-122.428;2023-05-20T08:31:06;100926.59;;;18.09;28.18
72486;BME280;60509;47.308;-122.428;2023-05-20T08:33:32;100923.71;;;17.74;28.62
72486;BME280;60509;47.308;-122.428;2023-05-20T08:35:58;100923.26;;;17.52;28.69
72486;BME280;60509;47.308;-122.428;2023-05-20T08:38:24;100925.74;;;17.59;28.64
72486;BME280;60509;47.308;-122.428;2023-05-20T08:40:51;100931.30;;;17.79;28.72
72486;BME280;60509;47.308;-122.428;2023-05-20T08:43:16;100929.02;;;17.62;28.57
72486;BME280;60509;47.308;-122.428;2023-05-20T08:45:41;100924.17;;;17.72;28.74
72486;BME280;60509;47.308;-122.428;2023-05-20T08:48:07;100927.69;;;17.20;28.85
72486;BME280;60509;47.308;-122.428;2023-05-20T08:50:33;100932.02;;;17.95;28.75
72486;BME280;60509;47.308;-122.428;2023-05-20T08:52:59;100931.83;;;17.85;28.58
72486;BME280;60509;47.308;-122.428;2023-05-20T08:55:29;100924.32;;;17.51;28.89
72486;BME280;60509;47.308;-122.428;2023-05-20T08:57:53;100919.67;;;17.50;28.83
72486;BME280;60509;47.308;-122.428;2023-05-20T09:00:18;100920.75;;;17.49;28.78
72486;BME280;60509;47.308;-122.428;2023-05-20T09:02:44;100927.44;;;17.62;29.23
72486;BME280;60509;47.308;-122.428;2023-05-20T09:05:10;100925.61;;;17.37;29.06
72486;BME280;60509;47.308;-122.428;2023-05-20T09:07:35;100928.04;;;17.43;29.30
72486;BME280;60509;47.308;-122.428;2023-05-20T09:10:01;100934.75;;;17.30;29.59
72486;BME280;60509;47.308;-122.428;2023-05-20T09:12:27;100939.87;;;17.66;29.24
72486;BME280;60509;47.308;-122.428;2023-05-20T09:14:53;100949.49;;;17.37;29.34
72486;BME280;60509;47.308;-122.428;2023-05-20T09:17:20;100957.18;;;17.47;29.28
72486;BME280;60509;47.308;-122.428;2023-05-20T09:19:48;100963.76;;;17.61;29.36
72486;BME280;60509;47.308;-122.428;2023-05-20T09:22:11;100974.40;;;17.29;29.26
72486;BME280;60509;47.308;-122.428;2023-05-20T09:24:36;100972.13;;;17.37;28.59
72486;BME280;60509;47.308;-122.428;2023-05-20T09:27:02;100968.10;;;17.50;28.16
72486;BME280;60509;47.308;-122.428;2023-05-20T09:29:32;100976.47;;;16.58;29.41
72486;BME280;60509;47.308;-122.428;2023-05-20T09:31:55;100985.32;;;16.57;29.31
72486;BME280;60509;47.308;-122.428;2023-05-20T09:34:20;100988.48;;;16.80;29.26
72486;BME280;60509;47.308;-122.428;2023-05-20T09:36:48;100982.85;;;16.80;29.25
72486;BME280;60509;47.308;-122.428;2023-05-20T09:39:14;100981.77;;;17.18;29.09
72486;BME280;60509;47.308;-122.428;2023-05-20T09:41:41;100982.98;;;17.69;28.75
72486;BME280;60509;47.308;-122.428;2023-05-20T09:44:04;100973.78;;;17.58;28.76
72486;BME280;60509;47.308;-122.428;2023-05-20T09:46:30;100953.51;;;17.31;28.99
72486;BME280;60509;47.308;-122.428;2023-05-20T09:48:56;100950.10;;;17.30;29.03
72486;BME280;60509;47.308;-122.428;2023-05-20T09:51:23;100956.99;;;17.49;28.68
72486;BME280;60509;47.308;-122.428;2023-05-20T09:53:47;100965.35;;;17.14;28.79
72486;BME280;60509;47.308;-122.428;2023-05-20T09:56:13;100971.02;;;17.52;28.64
72486;BME280;60509;47.308;-122.428;2023-05-20T09:58:39;100967.82;;;17.16;28.83
72486;BME280;60509;47.308;-122.428;2023-05-20T10:01:06;100976.32;;;17.09;28.98
72486;BME280;60509;47.308;-122.428;2023-05-20T10:03:32;100981.49;;;17.07;29.11
72486;BME280;60509;47.308;-122.428;2023-05-20T10:06:10;100975.08;;;17.23;28.98
72486;BME280;60509;47.308;-122.428;2023-05-20T10:08:36;100987.99;;;17.04;29.28
72486;BME280;60509;47.308;-122.428;2023-05-20T10:10:55;100996.62;;;16.81;29.40
72486;BME280;60509;47.308;-122.428;2023-05-20T10:13:24;100985.78;;;17.03;29.27
72486;BME280;60509;47.308;-122.428;2023-05-20T10:15:49;100977.30;;;17.10;29.16
72486;BME280;60509;47.308;-122.428;2023-05-20T10:18:16;100983.81;;;16.92;29.26
72486;BME280;60509;47.308;-122.428;2023-05-20T10:20:43;100982.70;;;16.91;29.19
72486;BME280;60509;47.308;-122.428;2023-05-20T10:22:59;100979.08;;;16.75;29.32
72486;BME280;60509;47.308;-122.428;2023-05-20T10:25:26;100981.99;;;16.31;29.35
72486;BME280;60509;47.308;-122.428;2023-05-20T10:27:50;100981.74;;;16.83;29.25
72486;BME280;60509;47.308;-122.428;2023-05-20T10:30:17;100980.32;;;16.95;29.11
72486;BME280;60509;47.308;-122.428;2023-05-20T10:32:51;100981.79;;;16.80;29.14
72486;BME280;60509;47.308;-122.428;2023-05-20T10:35:09;100979.17;;;17.13;28.97
72486;BME280;60509;47.308;-122.428;2023-05-20T10:37:43;100974.45;;;17.18;28.94
72486;BME280;60509;47.308;-122.428;2023-05-20T10:40:07;100974.84;;;16.66;29.11
72486;BME280;60509;47.308;-122.428;2023-05-20T10:42:29;100979.26;;;17.14;28.94
72486;BME280;60509;47.308;-122.428;2023-05-20T10:44:52;100981.54;;;17.02;29.03
72486;BME280;60509;47.308;-122.428;2023-05-20T10:47:18;100982.73;;;16.69;29.24
72486;BME280;60509;47.308;-122.428;2023-05-20T10:49:44;100990.01;;;16.63;29.37
72486;BME280;60509;47.308;-122.428;2023-05-20T10:52:10;100994.62;;;16.69;29.29
72486;BME280;60509;47.308;-122.428;2023-05-20T10:54:37;100992.25;;;16.73;29.19
72486;BME280;60509;47.308;-122.428;2023-05-20T10:57:06;100993.01;;;16.74;29.21
72486;BME280;60509;47.308;-122.428;2023-05-20T10:59:27;100999.97;;;16.49;29.21
72486;BME280;60509;47.308;-122.428;2023-05-20T11:01:54;100996.22;;;16.66;29.15
72486;BME280;60509;47.308;-122.428;2023-05-20T11:04:20;100993.57;;;16.24;29.31
72486;BME280;60509;47.308;-122.428;2023-05-20T11:06:51;100993.07;;;16.35;29.37
72486;BME280;60509;47.308;-122.428;2023-05-20T11:09:11;100995.82;;;16.61;29.21
72486;BME280;60509;47.308;-122.428;2023-05-20T11:11:37;100998.47;;;16.75;29.21
72486;BME280;60509;47.308;-122.428;2023-05-20T11:14:03;101002.75;;;16.75;29.18
72486;BME280;60509;47.308;-122.428;2023-05-20T11:16:29;101005.59;;;16.67;29.34
72486;BME280;60509;47.308;-122.428;2023-05-20T11:18:55;101004.29;;;16.61;29.22
72486;BME280;60509;47.308;-122.428;2023-05-20T11:21:21;101003.51;;;16.68;29.23
72486;BME280;60509;47.308;-122.428;2023-05-20T11:23:50;101002.47;;;16.51;29.23
72486;BME280;60509;47.308;-122.428;2023-05-20T11:26:13;101005.91;;;16.41;29.19
72486;BME280;60509;47.308;-122.428;2023-05-20T11:28:39;101006.04;;;16.30;29.47
72486;BME280;60509;47.308;-122.428;2023-05-20T11:31:05;101011.31;;;16.57;29.22
72486;BME280;60509;47.308;-122.428;2023-05-20T11:33:31;101009.70;;;16.54;29.27
72486;BME280;60509;47.308;-122.428;2023-05-20T11:35:56;101009.84;;;16.50;29.28
72486;BME280;60509;47.308;-122.428;2023-05-20T11:38:23;101007.99;;;16.45;29.39
72486;BME280;60509;47.308;-122.428;2023-05-20T11:40:52;101008.09;;;16.50;29.28
72486;BME280;60509;47.308;-122.428;2023-05-20T11:43:14;101005.44;;;16.51;29.21
72486;BME280;60509;47.308;-122.428;2023-05-20T11:45:42;101003.52;;;16.66;29.30
72486;BME280;60509;47.308;-122.428;2023-05-20T11:48:07;101002.56;;;16.63;29.26
72486;BME280;60509;47.308;-122.428;2023-05-20T11:50:34;100999.53;;;16.31;29.50
72486;BME280;60509;47.308;-122.428;2023-05-20T11:52:58;100996.12;;;16.31;29.34
72486;BME280;60509;47.308;-122.428;2023-05-20T11:55:24;100990.45;;;16.24;29.37
72486;BME280;60509;47.308;-122.428;2023-05-20T11:57:50;100991.90;;;16.59;29.24
72486;BME280;60509;47.308;-122.428;2023-05-20T12:00:16;100997.72;;;16.35;29.37
72486;BME280;60509;47.308;-122.428;2023-05-20T12:02:42;101002.00;;;16.61;29.22
72486;BME280;60509;47.308;-122.428;2023-05-20T12:05:08;101000.43;;;16.22;29.26
72486;BME280;60509;47.308;-122.428;2023-05-20T12:07:34;101001.98;;;16.28;29.25
72486;BME280;60509;47.308;-122.428;2023-05-20T12:10:00;101007.15;;;16.31;29.18
72486;BME280;60509;47.308;-122.428;2023-05-20T12:12:25;101009.94;;;16.24;29.29